sensor_id;sensor_type;location;lat;lon;timestamp;pressure;altitude;pressure_sealevel;temperature;humidity
64876;BME280;51369;49.862;9.908;2023-07-13T00:01:29;98120.59;;;21.80;49.77
64876;BME280;51369;49.862;9.908;2023-07-13T00:03:56;98121.28;;;21.72;50.15
64876;BME280;51369;49.862;9.908;2023-07-13T00:06:21;98123.59;;;21.67;50.01
64876;BME280;51369;49.862;9.908;2023-07-13T00:08:47;98125.91;;;21.62;50.31
64876;BME280;51369;49.862;9.908;2023-07-13T00:11:14;98124.59;;;21.56;50.49
64876;BME280;51369;49.862;9.908;2023-07-13T00:13:40;98134.09;;;21.42;50.69
64876;BME280;51369;49.862;9.908;2023-07-13T00:16:08;98136.63;;;21.04;51.02
64876;BME280;51369;49.862;9.908;2023-07-13T00:18:34;98141.31;;;20.92;50.72
64876;BME280;51369;49.862;9.908;2023-07-13T00:20:59;98144.47;;;20.88;51.17
64876;BME280;51369;49.862;9.908;2023-07-13T00:23:39;98141.28;;;20.83;51.35
64876;BME280;51369;49.862;9.908;2023-07-13T00:26:07;98140.53;;;20.80;51.39
64876;BME280;51369;49.862;9.908;2023-07-13T00:28:34;98139.09;;;20.76;51.67
64876;BME280;51369;49.862;9.908;2023-07-13T00:31:00;98129.41;;;20.72;51.90
64876;BME280;51369;49.862;9.908;2023-07-13T00:33:27;98129.81;;;20.68;52.20
64876;BME280;51369;49.862;9.908;2023-07-13T00:35:53;98127.59;;;20.62;52.29
64876;BME280;51369;49.862;9.908;2023-07-13T00:38:19;98138.84;;;20.59;52.63
64876;BME280;51369;49.862;9.908;2023-07-13T00:40:45;98138.22;;;20.55;52.37
64876;BME280;51369;49.862;9.908;2023-07-13T00:43:18;98129.53;;;20.50;53.06
64876;BME280;51369;49.862;9.908;2023-07-13T00:48:11;98117.84;;;20.37;53.05
64876;BME280;51369;49.862;9.908;2023-07-13T00:50:38;98124.00;;;20.29;53.37
64876;BME280;51369;49.862;9.908;2023-07-13T00:53:05;98141.03;;;20.44;51.79
64876;BME280;51369;49.862;9.908;2023-07-13T00:55:31;98123.84;;;20.63;52.18
64876;BME280;51369;49.862;9.908;2023-07-13T00:57:57;98121.69;;;20.66;51.65
64876;BME280;51369;49.862;9.908;2023-07-13T01:00:24;98128.19;;;20.65;51.55
64876;BME280;51369;49.862;9.908;2023-07-13T01:02:51;98130.19;;;20.63;51.21
64876;BME280;51369;49.862;9.908;2023-07-13T01:05:20;98132.22;;;20.61;51.93
64876;BME280;51369;49.862;9.908;2023-07-13T01:07:47;98136.19;;;20.36;52.08
64876;BME280;51369;49.862;9.908;2023-07-13T01:10:14;98150.00;;;20.46;52.31
64876;BME280;51369;49.862;9.908;2023-07-13T01:12:39;98152.75;;;20.46;51.84
64876;BME280;51369;49.862;9.908;2023-07-13T01:15:42;98144.03;;;20.41;52.03
64876;BME280;51369;49.862;9.908;2023-07-13T01:18:12;98143.03;;;20.42;52.10
64876;BME280;51369;49.862;9.908;2023-07-13T01:20:40;98148.00;;;20.37;52.92
64876;BME280;51369;49.862;9.908;2023-07-13T01:23:08;98143.81;;;20.33;52.38
64876;BME280;51369;49.862;9.908;2023-07-13T01:25:35;98142.06;;;20.32;52.49
64876;BME280;51369;49.862;9.908;2023-07-13T01:28:06;98160.03;;;19.93;52.75
64876;BME280;51369;49.862;9.908;2023-07-13T01:30:38;98154.03;;;19.99;53.50
64876;BME280;51369;49.862;9.908;2023-07-13T01:33:08;98154.59;;;20.13;53.04
64876;BME280;51369;49.862;9.908;2023-07-13T01:35:35;98156.34;;;20.14;52.81
64876;BME280;51369;49.862;9.908;2023-07-13T01:38:01;98149.97;;;20.14;52.73
64876;BME280;51369;49.862;9.908;2023-07-13T01:40:28;98147.38;;;20.12;52.57
64876;BME280;51369;49.862;9.908;2023-07-13T01:42:55;98161.34;;;20.09;53.10
64876;BME280;51369;49.862;9.908;2023-07-13T01:45:20;98157.84;;;20.07;52.29
64876;BME280;51369;49.862;9.908;2023-07-13T01:47:46;98157.47;;;19.69;53.14
64876;BME280;51369;49.862;9.908;2023-07-13T01:50:12;98152.31;;;19.87;53.90
64876;BME280;51369;49.862;9.908;2023-07-13T01:52:38;98148.84;;;19.85;53.15
64876;BME280;51369;49.862;9.908;2023-07-13T01:55:03;98157.47;;;19.46;54.52
64876;BME280;51369;49.862;9.908;2023-07-13T01:57:29;98160.22;;;19.35;54.49
64876;BME280;51369;49.862;9.908;2023-07-13T01:59:54;98163.44;;;19.29;54.55
64876;BME280;51369;49.862;9.908;2023-07-13T02:02:20;98163.06;;;19.23;54.83
64876;BME280;51369;49.862;9.908;2023-07-13T02:04:46;98172.53;;;19.18;54.79
64876;BME280;51369;49.862;9.908;2023-07-13T02:07:11;98175.28;;;19.18;54.80
64876;BME280;51369;49.862;9.908;2023-07-13T02:09:37;98180.88;;;19.17;54.68
64876;BME280;51369;49.862;9.908;2023-07-13T02:12:03;98182.72;;;19.16;54.28
64876;BME280;51369;49.862;9.908;2023-07-13T02:14:32;98183.72;;;19.15;54.25
64876;BME280;51369;49.862;9.908;2023-07-13T02:16:58;98185.59;;;19.15;54.28
64876;BME280;51369;49.862;9.908;2023-07-13T02:19:23;98179.38;;;19.13;53.32
64876;BME280;51369;49.862;9.908;2023-07-13T02:21:49;98186.72;;;19.35;53.40
64876;BME280;51369;49.862;9.908;2023-07-13T02:24:16;98184.22;;;19.43;53.09
64876;BME280;51369;49.862;9.908;2023-07-13T02:26:43;98179.75;;;19.42;52.84
64876;BME280;51369;49.862;9.908;2023-07-13T02:29:09;98186.47;;;19.38;52.40
64876;BME280;51369;49.862;9.908;2023-07-13T02:31:35;98188.59;;;19.34;52.84
64876;BME280;51369;49.862;9.908;2023-07-13T02:34:01;98185.09;;;19.32;53.41
64876;BME280;51369;49.862;9.908;2023-07-13T02:36:27;98194.69;;;19.27;53.71
64876;BME280;51369;49.862;9.908;2023-07-13T02:38:53;98198.78;;;19.21;54.13
64876;BME280;51369;49.862;9.908;2023-07-13T02:41:18;98203.88;;;19.14;53.36
64876;BME280;51369;49.862;9.908;2023-07-13T02:43:44;98198.03;;;19.08;53.66
64876;BME280;51369;49.862;9.908;2023-07-13T02:46:10;98194.56;;;19.06;52.87
64876;BME280;51369;49.862;9.908;2023-07-13T02:48:37;98198.31;;;19.05;53.06
64876;BME280;51369;49.862;9.908;2023-07-13T02:51:03;98202.03;;;19.04;53.18
64876;BME280;51369;49.862;9.908;2023-07-13T02:53:29;98205.00;;;19.01;53.93
64876;BME280;51369;49.862;9.908;2023-07-13T02:55:54;98198.78;;;18.99;53.66
64876;BME280;51369;49.862;9.908;2023-07-13T02:58:20;98207.50;;;18.93;53.98
64876;BME280;51369;49.862;9.908;2023-07-13T03:00:46;98202.38;;;18.88;53.31
64876;BME280;51369;49.862;9.908;2023-07-13T03:03:16;98200.88;;;18.84;52.69
64876;BME280;51369;49.862;9.908;2023-07-13T03:05:43;98197.41;;;18.82;52.44
64876;BME280;51369;49.862;9.908;2023-07-13T03:08:12;98182.09;;;18.79;52.30
64876;BME280;51369;49.862;9.908;2023-07-13T03:10:38;98190.53;;;18.76;51.96
64876;BME280;51369;49.862;9.908;2023-07-13T03:13:07;98190.66;;;18.75;52.40
64876;BME280;51369;49.862;9.908;2023-07-13T03:15:33;98189.78;;;18.74;52.24
64876;BME280;51369;49.862;9.908;2023-07-13T03:17:58;98185.56;;;18.70;51.67
64876;BME280;51369;49.862;9.908;2023-07-13T03:20:24;98199.22;;;18.70;52.62
64876;BME280;51369;49.862;9.908;2023-07-13T03:22:49;98204.69;;;18.70;51.94
64876;BME280;51369;49.862;9.908;2023-07-13T03:25:16;98203.94;;;18.68;52.93
64876;BME280;51369;49.862;9.908;2023-07-13T03:27:42;98212.28;;;18.67;52.79
64876;BME280;51369;49.862;9.908;2023-07-13T03:30:09;98207.91;;;18.64;53.64
64876;BME280;51369;49.862;9.908;2023-07-13T03:32:34;98211.75;;;18.62;53.82
64876;BME280;51369;49.862;9.908;2023-07-13T03:35:00;98221.03;;;18.59;54.05
64876;BME280;51369;49.862;9.908;2023-07-13T03:37:28;98228.50;;;18.57;53.42
64876;BME280;51369;49.862;9.908;2023-07-13T03:39:54;98233.19;;;18.55;53.80
64876;BME280;51369;49.862;9.908;2023-07-13T03:42:19;98237.91;;;18.53;53.87
64876;BME280;51369;49.862;9.908;2023-07-13T03:44:44;98237.16;;;18.51;53.46
64876;BME280;51369;49.862;9.908;2023-07-13T03:47:16;98248.09;;;18.51;53.58
64876;BME280;51369;49.862;9.908;2023-07-13T03:49:43;98256.94;;;18.54;55.23
64876;BME280;51369;49.862;9.908;2023-07-13T03:52:08;98267.75;;;18.56;54.69
64876;BME280;51369;49.862;9.908;2023-07-13T03:54:34;98265.16;;;18.54;54.85
64876;BME280;51369;49.862;9.908;2023-07-13T03:57:01;98283.28;;;18.56;55.21
64876;BME280;51369;49.862;9.908;2023-07-13T03:59:28;98273.22;;;18.56;54.61
64876;BME280;51369;49.862;9.908;2023-07-13T04:01:53;98277.94;;;18.54;55.17
64876;BME280;51369;49.862;9.908;2023-07-13T04:04:20;98273.47;;;18.53;55.50
64876;BME280;51369;49.862;9.908;2023-07-13T04:06:46;98281.44;;;18.56;54.88
64876;BME280;51369;49.862;9.908;2023-07-13T04:09:11;98284.16;;;18.56;54.57
64876;BME280;51369;49.862;9.908;2023-07-13T04:11:37;98288.66;;;18.57;54.69
64876;BME280;51369;49.862;9.908;2023-07-13T04:14:02;98285.03;;;18.57;55.52
64876;BME280;51369;49.862;9.908;2023-07-13T04:16:28;98283.41;;;18.54;54.82
64876;BME280;51369;49.862;9.908;2023-07-13T04:18:54;98296.09;;;18.55;55.51
64876;BME280;51369;49.862;9.908;2023-07-13T04:21:25;98289.88;;;18.53;55.09
64876;BME280;51369;49.862;9.908;2023-07-13T04:23:50;98288.88;;;18.54;55.33
64876;BME280;51369;49.862;9.908;2023-07-13T04:26:16;98294.22;;;18.56;55.15
64876;BME280;51369;49.862;9.908;2023-07-13T04:28:41;98295.09;;;18.56;54.90
64876;BME280;51369;49.862;9.908;2023-07-13T04:31:07;98294.13;;;18.57;55.16
64876;BME280;51369;49.862;9.908;2023-07-13T04:33:32;98294.00;;;18.59;55.12
64876;BME280;51369;49.862;9.908;2023-07-13T04:35:58;98296.72;;;18.59;55.58
64876;BME280;51369;49.862;9.908;2023-07-13T04:38:27;98304.81;;;18.60;55.33
64876;BME280;51369;49.862;9.908;2023-07-13T04:40:55;98301.88;;;18.63;54.92
64876;BME280;51369;49.862;9.908;2023-07-13T04:43:21;98302.50;;;18.67;54.42
64876;BME280;51369;49.862;9.908;2023-07-13T04:45:46;98306.88;;;18.69;53.74
64876;BME280;51369;49.862;9.908;2023-07-13T04:48:11;98305.88;;;18.70;53.83
64876;BME280;51369;49.862;9.908;2023-07-13T04:50:37;98306.53;;;18.74;53.30
64876;BME280;51369;49.862;9.908;2023-07-13T04:53:03;98314.50;;;18.77;52.07
64876;BME280;51369;49.862;9.908;2023-07-13T04:55:30;98315.25;;;18.79;53.57
64876;BME280;51369;49.862;9.908;2023-07-13T04:57:57;98315.13;;;18.80;53.05
64876;BME280;51369;49.862;9.908;2023-07-13T05:00:24;98321.34;;;18.82;52.56
64876;BME280;51369;49.862;9.908;2023-07-13T05:02:50;98320.38;;;18.83;52.57
64876;BME280;51369;49.862;9.908;2023-07-13T05:05:16;98323.84;;;18.85;52.96
64876;BME280;51369;49.862;9.908;2023-07-13T05:07:41;98322.88;;;18.87;53.18
64876;BME280;51369;49.862;9.908;2023-07-13T05:10:07;98325.59;;;18.87;52.95
64876;BME280;51369;49.862;9.908;2023-07-13T05:12:33;98322.88;;;18.87;53.18
64876;BME280;51369;49.862;9.908;2023-07-13T05:14:58;98323.63;;;18.89;52.91
64876;BME280;51369;49.862;9.908;2023-07-13T05:17:24;98329.09;;;18.89;52.62
64876;BME280;51369;49.862;9.908;2023-07-13T05:19:49;98329.09;;;18.89;52.59
64876;BME280;51369;49.862;9.908;2023-07-13T05:22:15;98328.09;;;18.90;52.93
64876;BME280;51369;49.862;9.908;2023-07-13T05:24:40;98330.72;;;18.91;52.79
64876;BME280;51369;49.862;9.908;2023-07-13T05:27:06;98342.41;;;18.93;52.26
64876;BME280;51369;49.862;9.908;2023-07-13T05:29:31;98336.59;;;18.98;53.63
64876;BME280;51369;49.862;9.908;2023-07-13T05:31:57;98332.50;;;19.03;53.58
64876;BME280;51369;49.862;9.908;2023-07-13T05:34:22;98334.38;;;19.14;53.34
64876;BME280;51369;49.862;9.908;2023-07-13T05:36:48;98328.06;;;19.25;52.75
64876;BME280;51369;49.862;9.908;2023-07-13T05:39:14;98327.97;;;19.37;52.23
64876;BME280;51369;49.862;9.908;2023-07-13T05:41:40;98327.00;;;19.49;52.41
64876;BME280;51369;49.862;9.908;2023-07-13T05:44:05;98340.72;;;19.61;51.82
64876;BME280;51369;49.862;9.908;2023-07-13T05:46:31;98333.63;;;19.69;52.03
64876;BME280;51369;49.862;9.908;2023-07-13T05:48:57;98333.91;;;19.77;50.52
64876;BME280;51369;49.862;9.908;2023-07-13T05:51:22;98340.38;;;19.88;50.94
64876;BME280;51369;49.862;9.908;2023-07-13T05:53:48;98349.59;;;19.98;50.90
64876;BME280;51369;49.862;9.908;2023-07-13T05:56:13;98354.44;;;20.05;50.60
64876;BME280;51369;49.862;9.908;2023-07-13T05:58:39;98345.97;;;20.08;49.67
64876;BME280;51369;49.862;9.908;2023-07-13T06:01:07;98343.97;;;20.10;49.95
64876;BME280;51369;49.862;9.908;2023-07-13T06:03:33;98343.72;;;20.13;50.21
64876;BME280;51369;49.862;9.908;2023-07-13T06:05:59;98350.72;;;20.18;50.11
64876;BME280;51369;49.862;9.908;2023-07-13T06:08:26;98344.84;;;20.22;49.15
64876;BME280;51369;49.862;9.908;2023-07-13T06:10:51;98350.81;;;20.27;49.76
64876;BME280;51369;49.862;9.908;2023-07-13T06:13:17;98357.03;;;20.29;49.40
64876;BME280;51369;49.862;9.908;2023-07-13T06:15:50;98350.56;;;20.30;49.36
64876;BME280;51369;49.862;9.908;2023-07-13T06:18:16;98354.06;;;20.32;50.24
64876;BME280;51369;49.862;9.908;2023-07-13T06:20:42;98350.19;;;20.35;49.52
64876;BME280;51369;49.862;9.908;2023-07-13T06:23:07;98360.44;;;20.44;49.57
64876;BME280;51369;49.862;9.908;2023-07-13T06:25:33;98353.16;;;20.54;49.21
64876;BME280;51369;49.862;9.908;2023-07-13T06:27:58;98358.88;;;20.62;49.09
64876;BME280;51369;49.862;9.908;2023-07-13T06:30:24;98361.00;;;20.70;48.90
64876;BME280;51369;49.862;9.908;2023-07-13T06:32:50;98357.47;;;20.79;48.57
64876;BME280;51369;49.862;9.908;2023-07-13T06:35:15;98361.28;;;20.88;48.45
64876;BME280;51369;49.862;9.908;2023-07-13T06:37:41;98363.22;;;20.97;48.18
64876;BME280;51369;49.862;9.908;2023-07-13T06:40:07;98367.06;;;21.05;47.71
64876;BME280;51369;49.862;9.908;2023-07-13T06:42:33;98362.94;;;21.11;47.96
64876;BME280;51369;49.862;9.908;2023-07-13T06:44:58;98367.75;;;21.19;48.18
64876;BME280;51369;49.862;9.908;2023-07-13T06:47:23;98374.75;;;21.23;47.43
64876;BME280;51369;49.862;9.908;2023-07-13T06:49:49;98388.97;;;21.28;47.71
64876;BME280;51369;49.862;9.908;2023-07-13T06:52:15;98372.09;;;21.32;47.62
64876;BME280;51369;49.862;9.908;2023-07-13T06:54:40;98378.06;;;21.37;47.64
64876;BME280;51369;49.862;9.908;2023-07-13T06:57:06;98371.44;;;21.40;47.37
64876;BME280;51369;49.862;9.908;2023-07-13T06:59:32;98379.00;;;21.48;47.36
64876;BME280;51369;49.862;9.908;2023-07-13T07:01:58;98383.56;;;21.58;47.15
64876;BME280;51369;49.862;9.908;2023-07-13T07:04:23;98376.53;;;21.65;46.98
64876;BME280;51369;49.862;9.908;2023-07-13T07:06:48;98371.81;;;21.77;47.33
64876;BME280;51369;49.862;9.908;2023-07-13T07:09:14;98381.88;;;21.88;46.57
64876;BME280;51369;49.862;9.908;2023-07-13T07:11:42;98378.16;;;21.98;46.09
64876;BME280;51369;49.862;9.908;2023-07-13T07:14:07;98383.47;;;22.11;45.96
64876;BME280;51369;49.862;9.908;2023-07-13T07:16:33;98389.16;;;22.19;45.84
64876;BME280;51369;49.862;9.908;2023-07-13T07:18:58;98395.97;;;22.25;45.46
64876;BME280;51369;49.862;9.908;2023-07-13T07:21:23;98391.38;;;22.35;45.32
64876;BME280;51369;49.862;9.908;2023-07-13T07:23:50;98389.09;;;22.40;45.37
64876;BME280;51369;49.862;9.908;2023-07-13T07:26:16;98382.16;;;22.46;45.19
64876;BME280;51369;49.862;9.908;2023-07-13T07:28:41;98389.41;;;22.56;45.08
64876;BME280;51369;49.862;9.908;2023-07-13T07:31:07;98396.81;;;22.65;44.47
64876;BME280;51369;49.862;9.908;2023-07-13T07:33:33;98388.59;;;22.75;43.94
64876;BME280;51369;49.862;9.908;2023-07-13T07:35:59;98388.78;;;22.83;43.41
64876;BME280;51369;49.862;9.908;2023-07-13T07:38:25;98385.91;;;22.94;43.22
64876;BME280;51369;49.862;9.908;2023-07-13T07:40:51;98403.16;;;23.06;43.15
64876;BME280;51369;49.862;9.908;2023-07-13T07:43:16;98389.25;;;23.17;43.34
64876;BME280;51369;49.862;9.908;2023-07-13T07:45:44;98388.09;;;23.29;43.53
64876;BME280;51369;49.862;9.908;2023-07-13T07:48:09;98397.09;;;23.41;43.19
64876;BME280;51369;49.862;9.908;2023-07-13T07:50:35;98380.56;;;23.51;42.54
64876;BME280;51369;49.862;9.908;2023-07-13T07:53:00;98388.84;;;23.60;42.43
64876;BME280;51369;49.862;9.908;2023-07-13T07:55:27;98376.78;;;23.71;42.05
64876;BME280;51369;49.862;9.908;2023-07-13T07:57:53;98388.09;;;23.78;41.63
64876;BME280;51369;49.862;9.908;2023-07-13T08:00:20;98384.91;;;23.82;42.29
64876;BME280;51369;49.862;9.908;2023-07-13T08:02:46;98378.50;;;23.91;42.80
64876;BME280;51369;49.862;9.908;2023-07-13T08:05:12;98389.63;;;23.99;42.15
64876;BME280;51369;49.862;9.908;2023-07-13T08:07:38;98390.47;;;24.10;42.08
64876;BME280;51369;49.862;9.908;2023-07-13T08:10:05;98387.53;;;24.21;41.78
64876;BME280;51369;49.862;9.908;2023-07-13T08:12:34;98386.47;;;24.31;41.26
64876;BME280;51369;49.862;9.908;2023-07-13T08:14:59;98395.75;;;24.40;40.95
64876;BME280;51369;49.862;9.908;2023-07-13T08:17:26;98396.88;;;24.47;40.99
64876;BME280;51369;49.862;9.908;2023-07-13T08:19:51;98391.06;;;24.50;40.34
64876;BME280;51369;49.862;9.908;2023-07-13T08:22:16;98394.53;;;24.52;40.32
64876;BME280;51369;49.862;9.908;2023-07-13T08:24:42;98402.50;;;24.55;40.35
64876;BME280;51369;49.862;9.908;2023-07-13T08:27:09;98394.94;;;24.57;40.62
64876;BME280;51369;49.862;9.908;2023-07-13T08:29:37;98399.44;;;24.58;40.31
64876;BME280;51369;49.862;9.908;2023-07-13T08:32:06;98401.31;;;24.58;39.76
64876;BME280;51369;49.862;9.908;2023-07-13T08:34:35;98393.75;;;24.60;40.56
64876;BME280;51369;49.862;9.908;2023-07-13T08:37:00;98398.09;;;24.62;40.65
64876;BME280;51369;49.862;9.908;2023-07-13T08:39:25;98395.59;;;24.69;40.47
64876;BME280;51369;49.862;9.908;2023-07-13T08:41:57;98403.84;;;24.79;41.08
64876;BME280;51369;49.862;9.908;2023-07-13T08:44:40;98400.53;;;24.93;40.30
64876;BME280;51369;49.862;9.908;2023-07-13T08:47:11;98403.38;;;25.11;40.72
64876;BME280;51369;49.862;9.908;2023-07-13T08:49:39;98404.72;;;25.24;40.73
64876;BME280;51369;49.862;9.908;2023-07-13T08:52:16;98394.84;;;25.40;40.18
64876;BME280;51369;49.862;9.908;2023-07-13T08:54:47;98400.84;;;25.53;40.13
64876;BME280;51369;49.862;9.908;2023-07-13T08:57:16;98399.28;;;25.68;39.67
64876;BME280;51369;49.862;9.908;2023-07-13T08:59:43;98398.72;;;25.82;38.35
64876;BME280;51369;49.862;9.908;2023-07-13T09:02:28;98401.78;;;25.97;39.24
64876;BME280;51369;49.862;9.908;2023-07-13T09:05:22;98387.69;;;26.16;39.06
64876;BME280;51369;49.862;9.908;2023-07-13T09:08:26;98399.97;;;26.40;39.68
64876;BME280;51369;49.862;9.908;2023-07-13T09:10:52;98395.41;;;26.65;38.42
64876;BME280;51369;49.862;9.908;2023-07-13T09:13:21;98392.41;;;26.92;38.23
64876;BME280;51369;49.862;9.908;2023-07-13T09:15:51;98390.44;;;27.18;38.32
64876;BME280;51369;49.862;9.908;2023-07-13T09:18:35;98377.66;;;27.34;37.33
64876;BME280;51369;49.862;9.908;2023-07-13T09:23:30;98397.63;;;27.62;37.01
64876;BME280;51369;49.862;9.908;2023-07-13T09:26:06;98400.06;;;27.65;37.23
64876;BME280;51369;49.862;9.908;2023-07-13T09:28:42;98405.63;;;27.73;36.29
64876;BME280;51369;49.862;9.908;2023-07-13T09:31:13;98404.72;;;27.88;37.61
64876;BME280;51369;49.862;9.908;2023-07-13T09:33:39;98412.16;;;27.96;37.35
64876;BME280;51369;49.862;9.908;2023-07-13T09:36:21;98408.53;;;27.96;35.21
64876;BME280;51369;49.862;9.908;2023-07-13T09:38:57;98398.81;;;28.00;35.84
64876;BME280;51369;49.862;9.908;2023-07-13T09:41:33;98399.84;;;28.07;35.73
64876;BME280;51369;49.862;9.908;2023-07-13T09:44:14;98401.91;;;28.13;35.56
64876;BME280;51369;49.862;9.908;2023-07-13T09:46:52;98393.59;;;28.13;36.29
64876;BME280;51369;49.862;9.908;2023-07-13T09:49:18;98409.91;;;28.16;37.47
64876;BME280;51369;49.862;9.908;2023-07-13T09:51:44;98407.28;;;28.14;38.13
64876;BME280;51369;49.862;9.908;2023-07-13T09:54:20;98394.97;;;28.17;36.32
64876;BME280;51369;49.862;9.908;2023-07-13T09:56:46;98394.94;;;28.41;36.73
64876;BME280;51369;49.862;9.908;2023-07-13T09:59:23;98393.00;;;28.58;35.77
64876;BME280;51369;49.862;9.908;2023-07-13T10:01:49;98392.97;;;28.66;35.74
64876;BME280;51369;49.862;9.908;2023-07-13T10:04:17;98396.59;;;28.67;35.92
64876;BME280;51369;49.862;9.908;2023-07-13T10:06:46;98410.28;;;28.85;37.34
64876;BME280;51369;49.862;9.908;2023-07-13T10:09:16;98402.44;;;28.88;35.30
64876;BME280;51369;49.862;9.908;2023-07-13T10:11:43;98400.34;;;28.90;36.08
64876;BME280;51369;49.862;9.908;2023-07-13T10:16:35;98399.63;;;28.96;36.22
64876;BME280;51369;49.862;9.908;2023-07-13T10:21:50;98400.03;;;28.77;36.57
64876;BME280;51369;49.862;9.908;2023-07-13T10:24:23;98404.38;;;28.79;36.25
64876;BME280;51369;49.862;9.908;2023-07-13T10:26:55;98405.78;;;28.75;35.51
64876;BME280;51369;49.862;9.908;2023-07-13T10:29:24;98401.44;;;28.73;36.28
64876;BME280;51369;49.862;9.908;2023-07-13T10:31:51;98397.94;;;28.79;36.03
64876;BME280;51369;49.862;9.908;2023-07-13T10:34:17;98404.53;;;28.86;35.82
64876;BME280;51369;49.862;9.908;2023-07-13T10:36:46;98411.25;;;29.00;35.96
64876;BME280;51369;49.862;9.908;2023-07-13T10:39:19;98411.31;;;29.23;35.88
64876;BME280;51369;49.862;9.908;2023-07-13T10:41:48;98417.13;;;29.36;34.94
64876;BME280;51369;49.862;9.908;2023-07-13T10:44:21;98403.06;;;29.37;33.94
64876;BME280;51369;49.862;9.908;2023-07-13T10:47:03;98406.69;;;29.46;34.47
64876;BME280;51369;49.862;9.908;2023-07-13T10:49:33;98404.78;;;29.61;34.93
64876;BME280;51369;49.862;9.908;2023-07-13T10:52:00;98401.94;;;29.69;33.39
64876;BME280;51369;49.862;9.908;2023-07-13T10:57:19;98401.75;;;29.25;34.79
64876;BME280;51369;49.862;9.908;2023-07-13T10:59:48;98402.44;;;28.88;32.65
64876;BME280;51369;49.862;9.908;2023-07-13T11:02:26;98410.38;;;28.52;34.02
64876;BME280;51369;49.862;9.908;2023-07-13T11:04:54;98392.72;;;28.37;34.64
64876;BME280;51369;49.862;9.908;2023-07-13T11:07:26;98401.41;;;28.26;35.71
64876;BME280;51369;49.862;9.908;2023-07-13T11:09:55;98392.84;;;28.43;35.60
64876;BME280;51369;49.862;9.908;2023-07-13T11:22:48;98397.00;;;28.47;34.59
64876;BME280;51369;49.862;9.908;2023-07-13T11:28:17;98392.56;;;27.98;34.69
64876;BME280;51369;49.862;9.908;2023-07-13T11:30:59;98393.63;;;27.80;34.96
64876;BME280;51369;49.862;9.908;2023-07-13T11:33:50;98396.22;;;27.74;37.51
64876;BME280;51369;49.862;9.908;2023-07-13T11:36:21;98404.88;;;27.79;35.93
64876;BME280;51369;49.862;9.908;2023-07-13T11:39:01;98392.94;;;27.78;34.61
64876;BME280;51369;49.862;9.908;2023-07-13T11:41:31;98386.50;;;27.78;36.49
64876;BME280;51369;49.862;9.908;2023-07-13T11:44:12;98389.84;;;27.73;35.77
64876;BME280;51369;49.862;9.908;2023-07-13T11:46:38;98381.13;;;27.84;35.27
64876;BME280;51369;49.862;9.908;2023-07-13T11:49:05;98394.81;;;28.02;34.80
64876;BME280;51369;49.862;9.908;2023-07-13T11:51:33;98399.50;;;28.26;35.22
64876;BME280;51369;49.862;9.908;2023-07-13T11:54:10;98388.00;;;28.45;34.11
64876;BME280;51369;49.862;9.908;2023-07-13T11:56:40;98386.41;;;28.51;35.04
64876;BME280;51369;49.862;9.908;2023-07-13T11:59:08;98385.88;;;28.56;34.54
64876;BME280;51369;49.862;9.908;2023-07-13T12:01:42;98381.31;;;28.71;33.71
64876;BME280;51369;49.862;9.908;2023-07-13T12:04:20;98381.78;;;28.91;34.85
64876;BME280;51369;49.862;9.908;2023-07-13T12:06:47;98389.28;;;29.13;34.61
64876;BME280;51369;49.862;9.908;2023-07-13T12:09:17;98389.19;;;29.29;34.85
64876;BME280;51369;49.862;9.908;2023-07-13T12:11:45;98384.63;;;29.36;33.53
64876;BME280;51369;49.862;9.908;2023-07-13T12:14:18;98392.00;;;29.52;33.75
64876;BME280;51369;49.862;9.908;2023-07-13T12:16:45;98388.34;;;29.74;34.00
64876;BME280;51369;49.862;9.908;2023-07-13T12:19:21;98394.34;;;30.09;33.72
64876;BME280;51369;49.862;9.908;2023-07-13T12:21:46;98375.66;;;30.47;34.48
64876;BME280;51369;49.862;9.908;2023-07-13T12:24:16;98393.84;;;30.87;32.72
64876;BME280;51369;49.862;9.908;2023-07-13T12:26:42;98386.56;;;31.22;33.21
64876;BME280;51369;49.862;9.908;2023-07-13T12:29:15;98394.88;;;31.37;32.38
64876;BME280;51369;49.862;9.908;2023-07-13T12:31:43;98385.09;;;31.26;32.14
64876;BME280;51369;49.862;9.908;2023-07-13T12:34:15;98393.44;;;31.05;32.51
64876;BME280;51369;49.862;9.908;2023-07-13T12:36:53;98395.75;;;30.72;32.40
64876;BME280;51369;49.862;9.908;2023-07-13T12:39:25;98401.59;;;30.48;32.93
64876;BME280;51369;49.862;9.908;2023-07-13T12:41:54;98400.91;;;30.31;33.90
64876;BME280;51369;49.862;9.908;2023-07-13T12:44:29;98411.34;;;30.14;32.02
64876;BME280;51369;49.862;9.908;2023-07-13T12:47:06;98409.72;;;29.97;33.38
64876;BME280;51369;49.862;9.908;2023-07-13T12:49:40;98414.69;;;29.87;35.14
64876;BME280;51369;49.862;9.908;2023-07-13T12:52:15;98416.22;;;29.66;33.81
64876;BME280;51369;49.862;9.908;2023-07-13T12:54:40;98410.78;;;29.50;33.89
64876;BME280;51369;49.862;9.908;2023-07-13T12:57:13;98410.53;;;29.37;34.03
64876;BME280;51369;49.862;9.908;2023-07-13T12:59:42;98414.06;;;29.54;35.92
64876;BME280;51369;49.862;9.908;2023-07-13T13:02:32;98399.28;;;29.76;33.65
64876;BME280;51369;49.862;9.908;2023-07-13T13:04:58;98400.19;;;30.14;34.06
64876;BME280;51369;49.862;9.908;2023-07-13T13:07:25;98396.25;;;30.61;34.34
64876;BME280;51369;49.862;9.908;2023-07-13T13:09:51;98402.69;;;30.76;32.05
64876;BME280;51369;49.862;9.908;2023-07-13T13:12:19;98404.03;;;30.65;32.35
64876;BME280;51369;49.862;9.908;2023-07-13T13:14:45;98414.66;;;30.47;32.52
64876;BME280;51369;49.862;9.908;2023-07-13T13:17:30;98411.91;;;30.09;32.98
64876;BME280;51369;49.862;9.908;2023-07-13T13:19:56;98414.63;;;29.95;33.60
64876;BME280;51369;49.862;9.908;2023-07-13T13:22:22;98408.81;;;29.82;33.52
64876;BME280;51369;49.862;9.908;2023-07-13T13:24:47;98410.91;;;29.79;33.05
64876;BME280;51369;49.862;9.908;2023-07-13T13:27:21;98412.09;;;29.62;33.46
64876;BME280;51369;49.862;9.908;2023-07-13T13:29:49;98414.81;;;29.47;34.29
64876;BME280;51369;49.862;9.908;2023-07-13T13:32:17;98415.41;;;29.35;34.47